createdAt,value
2022-11-27T00:01:10.361Z,-1.41
2022-11-27T00:03:38.193Z,-1.40
2022-11-27T00:06:06.335Z,-1.45
2022-11-27T00:08:35.390Z,-1.38
2022-11-27T00:11:07.983Z,-1.40
2022-11-27T00:13:36.515Z,-1.66
2022-11-27T00:16:05.259Z,-1.47
2022-11-27T00:18:33.631Z,-1.51
2022-11-27T00:21:04.293Z,-1.54
2022-11-27T00:23:32.925Z,-1.67
2022-11-27T00:26:02.665Z,-1.56
2022-11-27T00:28:31.209Z,-1.57
2022-11-27T00:30:59.710Z,-1.42
2022-11-27T00:33:27.816Z,-1.53
2022-11-27T00:35:55.749Z,-1.54
2022-11-27T00:38:23.745Z,-1.63
2022-11-27T00:40:51.498Z,-1.59
2022-11-27T00:43:20.589Z,-1.61
2022-11-27T00:45:50.279Z,-1.62
2022-11-27T00:48:17.999Z,-1.56
2022-11-27T00:50:45.713Z,-1.56
2022-11-27T00:53:13.453Z,-1.38
2022-11-27T00:55:41.189Z,-1.46
2022-11-27T00:58:08.911Z,-1.57
2022-11-27T01:00:37.933Z,-1.61
2022-11-27T01:03:05.988Z,-1.76
2022-11-27T01:05:36.467Z,-1.69
2022-11-27T01:08:04.651Z,-1.72
2022-11-27T01:10:32.313Z,-1.91
2022-11-27T01:13:00.027Z,-1.71
2022-11-27T01:15:28.013Z,-1.77
2022-11-27T01:17:57.045Z,-1.73
2022-11-27T01:20:24.745Z,-1.79
2022-11-27T01:22:52.612Z,-1.81
2022-11-27T01:25:24.195Z,-1.87
2022-11-27T01:27:54.665Z,-1.81
2022-11-27T01:30:22.339Z,-1.81
2022-11-27T01:32:50.102Z,-1.81
2022-11-27T01:35:19.175Z,-1.77
2022-11-27T01:37:46.857Z,-1.76
2022-11-27T01:40:14.785Z,-1.86
2022-11-27T01:42:42.491Z,-1.97
2022-11-27T01:45:11.320Z,-2.03
2022-11-27T01:47:45.059Z,-1.97
2022-11-27T01:50:22.716Z,-2.02
2022-11-27T01:52:53.957Z,-1.99
2022-11-27T01:55:28.863Z,-1.90
2022-11-27T01:58:01.020Z,-1.91
2022-11-27T02:00:28.771Z,-1.91
2022-11-27T02:02:56.651Z,-1.92
2022-11-27T02:05:28.522Z,-1.95
2022-11-27T02:07:59.171Z,-1.96
2022-11-27T02:10:37.732Z,-2.01
2022-11-27T02:13:10.688Z,-2.00
2022-11-27T02:15:45.239Z,-2.04
2022-11-27T02:18:19.913Z,-1.94
2022-11-27T02:20:55.268Z,-2.05
2022-11-27T02:23:51.140Z,-2.09
2022-11-27T02:26:37.711Z,-2.22
2022-11-27T02:29:08.797Z,-2.16
2022-11-27T02:31:41.853Z,-2.11
2022-11-27T02:34:23.979Z,-2.05
2022-11-27T02:36:58.290Z,-2.13
2022-11-27T02:39:34.293Z,-2.18
2022-11-27T02:42:09.715Z,-2.20
2022-11-27T02:44:44.131Z,-2.22
2022-11-27T02:47:13.730Z,-2.24
2022-11-27T02:49:44.041Z,-2.32
2022-11-27T02:52:14.236Z,-2.35
2022-11-27T02:54:44.343Z,-2.34
2022-11-27T02:57:15.003Z,-2.41
2022-11-27T02:59:45.970Z,-2.46
2022-11-27T03:02:19.819Z,-2.42
2022-11-27T03:04:52.872Z,-2.31
2022-11-27T03:07:31.808Z,-2.34
2022-11-27T03:10:04.753Z,-2.39
2022-11-27T03:12:32.761Z,-2.28
2022-11-27T03:15:01.859Z,-2.36
2022-11-27T03:17:43.841Z,-2.40
2022-11-27T03:20:17.226Z,-2.42
2022-11-27T03:22:45.055Z,-2.40
2022-11-27T03:25:12.993Z,-2.43
2022-11-27T03:27:45.469Z,-2.41
2022-11-27T03:30:15.441Z,-2.45
2022-11-27T03:32:44.085Z,-2.54
2022-11-27T03:35:15.335Z,-2.61
2022-11-27T03:37:43.393Z,-2.60
2022-11-27T03:40:12.834Z,-2.68
2022-11-27T03:42:54.141Z,-2.59
2022-11-27T03:45:31.133Z,-2.57
2022-11-27T03:48:10.003Z,-2.60
2022-11-27T03:50:47.588Z,-2.64
2022-11-27T03:53:22.949Z,-2.67
2022-11-27T03:55:58.249Z,-2.67
2022-11-27T03:58:33.942Z,-2.66
2022-11-27T04:01:06.114Z,-2.67
2022-11-27T04:03:33.915Z,-2.64
2022-11-27T04:06:01.592Z,-2.63
2022-11-27T04:08:29.276Z,-2.58
2022-11-27T04:10:57.038Z,-2.63
2022-11-27T04:13:24.754Z,-2.69
2022-11-27T04:15:52.551Z,-2.76
2022-11-27T04:18:21.855Z,-2.81
2022-11-27T04:20:49.710Z,-2.76
2022-11-27T04:23:17.378Z,-2.75
2022-11-27T04:25:45.186Z,-2.81
2022-11-27T04:28:12.862Z,-2.82
2022-11-27T04:30:40.888Z,-2.80
2022-11-27T04:33:08.551Z,-2.82
2022-11-27T04:35:37.668Z,-2.80
2022-11-27T04:38:05.292Z,-2.75
2022-11-27T04:40:33.016Z,-2.69
2022-11-27T04:43:00.743Z,-2.69
2022-11-27T04:45:28.451Z,-2.73
2022-11-27T04:47:56.125Z,-2.79
2022-11-27T04:50:23.973Z,-2.82
2022-11-27T04:52:53.094Z,-2.76
2022-11-27T04:55:20.906Z,-2.71
2022-11-27T04:57:48.589Z,-2.85
2022-11-27T05:00:17.150Z,-2.87
2022-11-27T05:02:44.856Z,-2.84
2022-11-27T05:05:12.621Z,-2.95
2022-11-27T05:07:40.366Z,-2.94
2022-11-27T05:10:10.573Z,-2.96
2022-11-27T05:12:38.320Z,-2.89
2022-11-27T05:15:07.057Z,-2.98
2022-11-27T05:17:34.761Z,-2.90
2022-11-27T05:20:02.496Z,-2.96
2022-11-27T05:22:30.132Z,-2.98
2022-11-27T05:24:57.768Z,-3.01
2022-11-27T05:27:26.844Z,-3.05
2022-11-27T05:29:54.571Z,-3.09
2022-11-27T05:32:25.065Z,-3.04
2022-11-27T05:34:52.835Z,-2.85
2022-11-27T05:37:20.495Z,-3.05
2022-11-27T05:39:48.203Z,-3.05
2022-11-27T05:42:15.847Z,-3.06
2022-11-27T05:44:44.846Z,-3.10
2022-11-27T05:47:12.494Z,-3.09
2022-11-27T05:49:40.317Z,-3.05
2022-11-27T05:52:07.940Z,-3.04
2022-11-27T05:54:35.603Z,-3.04
2022-11-27T05:57:03.244Z,-2.98
2022-11-27T05:59:30.892Z,-3.10
2022-11-27T06:01:59.959Z,-2.91
2022-11-27T06:04:27.614Z,-3.15
2022-11-27T06:06:55.322Z,-3.23
2022-11-27T06:09:22.952Z,-3.21
2022-11-27T06:11:50.832Z,-3.19
2022-11-27T06:14:18.517Z,-3.20
2022-11-27T06:16:46.284Z,-3.26
2022-11-27T06:19:15.328Z,-3.24
2022-11-27T06:21:42.973Z,-3.39
2022-11-27T06:24:11.921Z,-3.21
2022-11-27T06:26:39.621Z,-3.30
2022-11-27T06:29:07.434Z,-3.16
2022-11-27T06:31:35.279Z,-3.29
2022-11-27T06:34:04.124Z,-3.34
2022-11-27T06:36:35.258Z,-3.36
2022-11-27T06:39:04.125Z,-3.42
2022-11-27T06:41:32.039Z,-3.44
2022-11-27T06:44:01.633Z,-3.40
2022-11-27T06:46:30.328Z,-3.42
2022-11-27T06:48:58.440Z,-3.30
2022-11-27T06:51:28.340Z,-3.39
2022-11-27T06:53:58.028Z,-3.43
2022-11-27T06:56:27.376Z,-3.40
2022-11-27T06:58:57.415Z,-3.44
2022-11-27T07:01:26.612Z,-3.41
2022-11-27T07:03:54.331Z,-3.38
2022-11-27T07:06:23.838Z,-3.41
2022-11-27T07:08:52.273Z,-3.38
2022-11-27T07:11:22.935Z,-3.37
2022-11-27T07:13:52.232Z,-3.32
2022-11-27T07:16:20.220Z,-3.36
2022-11-27T07:18:50.214Z,-3.33
2022-11-27T07:21:18.346Z,-3.33
2022-11-27T07:23:46.205Z,-3.34
2022-11-27T07:26:15.515Z,-3.42
2022-11-27T07:28:44.872Z,-3.29
2022-11-27T07:31:13.869Z,-3.32
2022-11-27T07:33:41.813Z,-3.22
2022-11-27T07:36:14.589Z,-3.20
2022-11-27T07:38:42.773Z,-3.14
2022-11-27T07:41:10.938Z,-3.12
2022-11-27T07:43:39.180Z,-3.14
2022-11-27T07:46:10.193Z,-3.11
2022-11-27T07:48:37.942Z,-3.04
2022-11-27T07:51:07.421Z,-3.01
2022-11-27T07:53:37.297Z,-2.99
2022-11-27T07:56:05.454Z,-2.91
2022-11-27T07:58:33.091Z,-2.88
2022-11-27T08:01:00.909Z,-2.81
2022-11-27T08:03:29.973Z,-2.75
2022-11-27T08:05:57.613Z,-2.70
2022-11-27T08:08:25.288Z,-2.67
2022-11-27T08:10:52.908Z,-2.61
2022-11-27T08:13:20.566Z,-2.52
2022-11-27T08:15:48.341Z,-2.29
2022-11-27T08:18:16.017Z,-2.07
2022-11-27T08:20:45.707Z,-1.98
2022-11-27T08:23:13.462Z,-1.81
2022-11-27T08:25:41.161Z,-1.51
2022-11-27T08:28:08.950Z,-1.24
2022-11-27T08:30:36.619Z,-1.14
2022-11-27T08:33:04.527Z,-1.05
2022-11-27T08:35:32.252Z,-1.02
2022-11-27T08:38:01.355Z,-0.89
2022-11-27T08:40:29.000Z,-0.76
2022-11-27T08:42:56.622Z,-0.62
2022-11-27T08:45:24.311Z,-0.60
2022-11-27T08:47:51.980Z,-0.43
2022-11-27T08:50:19.767Z,-0.33
2022-11-27T08:52:47.419Z,-0.12
2022-11-27T08:55:16.813Z,-0.19
2022-11-27T08:57:44.498Z,0.09
2022-11-27T09:00:13.156Z,0.30
2022-11-27T09:02:43.033Z,0.37
2022-11-27T09:05:11.247Z,0.39
2022-11-27T09:07:40.898Z,0.64
2022-11-27T09:10:09.488Z,0.73
2022-11-27T09:12:43.217Z,0.70
2022-11-27T09:15:12.043Z,0.65
2022-11-27T09:17:40.280Z,0.61
2022-11-27T09:20:09.357Z,0.46
2022-11-27T09:22:37.061Z,0.49
2022-11-27T09:25:05.127Z,0.65
2022-11-27T09:27:32.763Z,0.69
2022-11-27T09:30:02.167Z,0.81
2022-11-27T09:32:29.796Z,0.78
2022-11-27T09:34:57.874Z,0.90
2022-11-27T09:37:25.607Z,1.14
2022-11-27T09:39:53.425Z,1.14
2022-11-27T09:42:38.472Z,1.40
2022-11-27T09:45:13.287Z,1.53
2022-11-27T09:47:44.003Z,1.55
2022-11-27T09:50:15.792Z,1.67
2022-11-27T09:52:47.572Z,1.97
2022-11-27T09:55:21.207Z,2.09
2022-11-27T09:58:00.313Z,2.35
2022-11-27T10:00:29.646Z,2.49
2022-11-27T10:02:57.461Z,2.51
2022-11-27T10:05:29.750Z,2.74
2022-11-27T10:08:27.489Z,2.88
2022-11-27T10:11:09.217Z,3.01
2022-11-27T10:13:52.490Z,3.04
2022-11-27T10:16:31.513Z,3.17
2022-11-27T10:19:05.892Z,3.30
2022-11-27T10:21:43.511Z,3.36
2022-11-27T10:24:21.094Z,3.48
2022-11-27T10:26:50.034Z,3.49
2022-11-27T10:29:31.699Z,3.49
2022-11-27T10:32:05.679Z,3.65
2022-11-27T10:34:39.845Z,3.66
2022-11-27T10:37:13.593Z,3.57
2022-11-27T10:39:45.569Z,3.74
2022-11-27T10:42:18.567Z,3.67
2022-11-27T10:44:51.335Z,3.53
2022-11-27T10:47:24.106Z,3.66
2022-11-27T10:49:51.979Z,3.46
2022-11-27T10:52:21.155Z,3.71
2022-11-27T10:54:54.140Z,3.75
2022-11-27T10:57:45.305Z,3.75
2022-11-27T11:00:16.560Z,3.59
2022-11-27T11:02:45.845Z,3.44
2022-11-27T11:05:41.048Z,3.48
2022-11-27T11:08:17.928Z,3.57
2022-11-27T11:10:52.978Z,3.44
2022-11-27T11:13:23.745Z,3.23
2022-11-27T11:15:54.751Z,3.11
2022-11-27T11:18:25.364Z,2.93
2022-11-27T11:20:56.111Z,2.93
2022-11-27T11:23:33.569Z,2.74
2022-11-27T11:26:05.236Z,2.54
2022-11-27T11:28:39.555Z,2.23
2022-11-27T11:31:11.943Z,2.35
2022-11-27T11:33:50.868Z,2.54
2022-11-27T11:36:18.765Z,2.58
2022-11-27T11:38:48.289Z,1.70
2022-11-27T11:41:18.049Z,2.05
2022-11-27T11:43:58.873Z,2.12
2022-11-27T11:46:29.773Z,1.66
2022-11-27T11:49:02.253Z,1.66
2022-11-27T11:52:12.699Z,1.90
2022-11-27T11:54:52.784Z,1.72
2022-11-27T11:57:36.610Z,1.74
2022-11-27T12:00:10.760Z,1.78
2022-11-27T12:03:04.230Z,1.65
2022-11-27T12:05:40.849Z,1.52
2022-11-27T12:08:29.937Z,1.28
2022-11-27T12:11:06.679Z,1.22
2022-11-27T12:13:45.988Z,1.42
2022-11-27T12:16:20.821Z,0.96
2022-11-27T12:19:05.340Z,1.26
2022-11-27T12:21:44.853Z,1.00
2022-11-27T12:24:25.309Z,0.93
2022-11-27T12:27:09.656Z,0.86
2022-11-27T12:29:58.315Z,1.00
2022-11-27T12:32:40.102Z,0.88
2022-11-27T12:35:30.439Z,0.92
2022-11-27T12:38:10.897Z,0.64
2022-11-27T12:40:51.440Z,0.13
2022-11-27T12:43:25.490Z,0.73
2022-11-27T12:45:59.442Z,0.62
2022-11-27T12:48:32.635Z,0.56
2022-11-27T12:51:04.995Z,0.62
2022-11-27T12:53:40.266Z,0.81
2022-11-27T12:56:13.500Z,0.80
2022-11-27T12:58:44.331Z,0.62
2022-11-27T13:01:16.770Z,0.35
2022-11-27T13:03:57.401Z,0.61
2022-11-27T13:06:29.504Z,0.56
2022-11-27T13:09:03.765Z,0.47
2022-11-27T13:11:35.939Z,0.56
2022-11-27T13:14:08.578Z,0.68
2022-11-27T13:16:40.866Z,0.51
2022-11-27T13:19:15.559Z,0.55
2022-11-27T13:21:46.126Z,0.39
2022-11-27T13:24:15.867Z,0.58
2022-11-27T13:26:49.971Z,0.60
2022-11-27T13:29:26.048Z,0.68
2022-11-27T13:31:57.407Z,0.48
2022-11-27T13:34:28.338Z,0.40
2022-11-27T13:36:58.993Z,0.43
2022-11-27T13:39:31.212Z,0.48
2022-11-27T13:42:06.964Z,0.55
2022-11-27T13:44:39.077Z,0.60
2022-11-27T13:47:11.441Z,0.40
2022-11-27T13:49:39.431Z,0.06
2022-11-27T13:52:11.728Z,0.51
2022-11-27T13:54:52.286Z,0.53
2022-11-27T13:57:21.112Z,0.49
2022-11-27T13:59:57.501Z,0.34
2022-11-27T14:02:26.017Z,0.73
2022-11-27T14:04:56.378Z,0.49
2022-11-27T14:07:25.249Z,0.62
2022-11-27T14:09:56.961Z,0.55
2022-11-27T14:12:27.831Z,0.45
2022-11-27T14:15:03.378Z,0.38
2022-11-27T14:17:37.073Z,0.42
2022-11-27T14:20:20.047Z,0.49
2022-11-27T14:25:39.689Z,0.56
2022-11-27T14:28:15.602Z,0.51
2022-11-27T14:30:49.123Z,0.54
2022-11-27T14:33:23.323Z,0.52
2022-11-27T14:35:52.585Z,0.50
2022-11-27T14:38:20.508Z,0.50
2022-11-27T14:40:50.504Z,0.60
2022-11-27T14:43:23.729Z,0.52
2022-11-27T14:45:54.020Z,0.35
2022-11-27T14:48:23.807Z,0.46
2022-11-27T14:50:53.534Z,0.40
2022-11-27T14:53:23.788Z,0.40
2022-11-27T14:55:55.962Z,0.52
2022-11-27T14:58:26.845Z,0.52
2022-11-27T15:01:00.718Z,0.65
2022-11-27T15:03:28.598Z,0.53
2022-11-27T15:05:59.532Z,0.63
2022-11-27T15:08:28.381Z,0.63
2022-11-27T15:10:59.671Z,0.61
2022-11-27T15:13:30.057Z,0.44
2022-11-27T15:16:02.422Z,0.50
2022-11-27T15:18:33.483Z,0.52
2022-11-27T15:21:03.225Z,0.53
2022-11-27T15:23:34.017Z,0.54
2022-11-27T15:26:14.983Z,0.35
2022-11-27T15:28:50.961Z,0.56
2022-11-27T15:31:26.137Z,0.64
2022-11-27T15:33:58.679Z,0.53
2022-11-27T15:36:27.603Z,0.19
2022-11-27T15:39:17.341Z,0.39
2022-11-27T15:41:53.601Z,0.70
2022-11-27T15:44:21.475Z,0.53
2022-11-27T15:46:50.233Z,0.60
2022-11-27T15:49:19.526Z,0.62
2022-11-27T15:51:47.621Z,0.66
2022-11-27T15:54:15.334Z,0.64
2022-11-27T15:56:43.427Z,0.69
2022-11-27T15:59:12.548Z,0.41
2022-11-27T16:01:46.134Z,0.67
2022-11-27T16:04:13.914Z,0.77
2022-11-27T16:06:41.608Z,0.75
2022-11-27T16:09:09.504Z,0.93
2022-11-27T16:11:37.368Z,0.62
2022-11-27T16:14:05.229Z,0.72
2022-11-27T16:16:35.158Z,0.71
2022-11-27T16:19:06.288Z,0.70
2022-11-27T16:21:35.437Z,0.67
2022-11-27T16:24:05.416Z,0.61
2022-11-27T16:26:33.570Z,0.60
2022-11-27T16:29:01.579Z,0.28
2022-11-27T16:31:29.838Z,-0.03
2022-11-27T16:33:59.621Z,0.14
2022-11-27T16:36:27.508Z,-0.46
2022-11-27T16:38:55.941Z,0.01
2022-11-27T16:41:26.037Z,-0.09
2022-11-27T16:43:56.855Z,-0.32
2022-11-27T16:46:27.716Z,0.39
2022-11-27T16:48:56.241Z,0.21
2022-11-27T16:51:28.314Z,0.21
2022-11-27T16:53:59.392Z,-0.20
2022-11-27T16:56:29.310Z,0.06
2022-11-27T16:59:02.802Z,0.30
2022-11-27T17:01:35.832Z,0.01
2022-11-27T17:04:07.080Z,0.18
2022-11-27T17:06:37.597Z,0.13
2022-11-27T17:09:07.950Z,0.09
2022-11-27T17:11:38.088Z,-0.28
2022-11-27T17:14:08.619Z,-0.02
2022-11-27T17:16:38.727Z,-0.11
2022-11-27T17:19:06.591Z,0.15
2022-11-27T17:21:36.516Z,0.23
2022-11-27T17:24:11.645Z,-0.33
2022-11-27T17:26:46.174Z,-0.02
2022-11-27T17:29:15.972Z,-0.47
2022-11-27T17:31:44.965Z,0.09
2022-11-27T17:34:15.625Z,-0.04
2022-11-27T17:36:46.859Z,0.02
2022-11-27T17:39:15.821Z,-0.09
2022-11-27T17:41:46.889Z,-0.80
2022-11-27T17:44:14.720Z,-0.23
2022-11-27T17:46:44.901Z,-0.97
2022-11-27T17:49:13.257Z,-0.22
2022-11-27T17:51:41.235Z,-0.20
2022-11-27T17:54:12.612Z,-0.52
2022-11-27T17:56:40.347Z,-0.31
2022-11-27T17:59:10.253Z,-0.19
2022-11-27T18:01:39.087Z,-0.24
2022-11-27T18:04:06.857Z,-0.23
2022-11-27T18:06:35.958Z,-0.33
2022-11-27T18:09:04.493Z,-0.51
2022-11-27T18:11:34.714Z,-0.36
2022-11-27T18:14:03.119Z,-0.26
2022-11-27T18:16:33.358Z,-0.17
2022-11-27T18:19:03.872Z,-0.13
2022-11-27T18:21:31.684Z,-0.67
2022-11-27T18:24:22.653Z,-0.17
2022-11-27T18:29:38.842Z,-0.79
2022-11-27T18:32:07.525Z,-0.20
2022-11-27T18:34:36.484Z,-0.95
2022-11-27T18:37:04.472Z,-0.13
2022-11-27T18:39:32.706Z,-0.32
2022-11-27T18:42:03.249Z,-0.12
2022-11-27T18:44:30.959Z,-0.35
2022-11-27T18:46:59.495Z,-0.17
2022-11-27T18:49:27.742Z,-0.25
2022-11-27T18:51:56.340Z,-0.14
2022-11-27T18:54:24.863Z,-0.50
2022-11-27T18:56:52.691Z,-0.32
2022-11-27T18:59:22.014Z,-0.01
2022-11-27T19:01:50.354Z,-0.09
2022-11-27T19:04:18.582Z,-0.40
2022-11-27T19:06:47.625Z,-0.08
2022-11-27T19:09:15.765Z,-0.08
2022-11-27T19:11:44.181Z,-0.71
2022-11-27T19:14:12.168Z,-0.41
2022-11-27T19:16:46.336Z,-0.13
2022-11-27T19:19:52.703Z,-0.16
2022-11-27T19:22:07.421Z,0.00
2022-11-27T19:24:35.248Z,-1.02
2022-11-27T19:27:03.570Z,-0.39
2022-11-27T19:29:31.655Z,0.08
2022-11-27T19:32:01.269Z,-0.06
2022-11-27T19:34:29.415Z,0.10
2022-11-27T19:36:58.124Z,0.09
2022-11-27T19:39:26.889Z,0.04
2022-11-27T19:41:54.705Z,0.08
2022-11-27T19:44:22.427Z,0.06
2022-11-27T19:46:50.207Z,0.09
2022-11-27T19:49:21.279Z,0.15
2022-11-27T19:51:49.715Z,-0.08
2022-11-27T19:54:20.543Z,-0.20
2022-11-27T19:56:49.769Z,0.14
2022-11-27T19:59:24.247Z,-0.44
2022-11-27T20:01:54.471Z,0.18
2022-11-27T20:04:28.483Z,0.17
2022-11-27T20:06:56.210Z,0.15
2022-11-27T20:09:25.727Z,0.20
2022-11-27T20:11:56.078Z,-0.37
2022-11-27T20:14:23.767Z,0.05
2022-11-27T20:16:51.661Z,0.18
2022-11-27T20:19:19.489Z,-0.06
2022-11-27T20:21:48.699Z,-0.02
2022-11-27T20:24:16.792Z,0.16
2022-11-27T20:26:45.505Z,-0.15
2022-11-27T20:29:13.985Z,-0.08
2022-11-27T20:31:44.542Z,0.10
2022-11-27T20:34:18.668Z,0.01
2022-11-27T20:36:48.261Z,0.23
2022-11-27T20:39:21.000Z,-0.08
2022-11-27T20:41:50.792Z,0.06
2022-11-27T20:44:18.694Z,0.23
2022-11-27T20:46:47.127Z,-0.53
2022-11-27T20:49:15.138Z,-0.32
2022-11-27T20:51:43.038Z,0.08
2022-11-27T20:54:12.831Z,-0.46
2022-11-27T20:56:43.070Z,-0.02
2022-11-27T20:59:10.938Z,0.20
2022-11-27T21:01:41.316Z,-0.11
2022-11-27T21:04:19.790Z,-0.02
2022-11-27T21:06:48.178Z,0.22
2022-11-27T21:09:17.919Z,0.23
2022-11-27T21:11:47.309Z,0.24
2022-11-27T21:14:16.781Z,0.25
2022-11-27T21:16:48.429Z,0.32
2022-11-27T21:19:19.903Z,-0.45
2022-11-27T21:21:48.244Z,0.33
2022-11-27T21:24:18.171Z,0.06
2022-11-27T21:26:46.536Z,-0.02
2022-11-27T21:29:16.839Z,0.24
2022-11-27T21:31:47.024Z,0.15
2022-11-27T21:34:15.851Z,-0.51
2022-11-27T21:36:44.968Z,-0.13
2022-11-27T21:39:19.964Z,0.05
2022-11-27T21:41:50.980Z,0.17
2022-11-27T21:44:22.223Z,0.09
2022-11-27T21:46:50.203Z,0.13
2022-11-27T21:49:20.364Z,0.09
2022-11-27T21:51:51.875Z,0.19
2022-11-27T21:54:20.451Z,0.08
2022-11-27T21:56:51.737Z,-0.49
2022-11-27T21:59:19.745Z,0.16
2022-11-27T22:01:48.942Z,0.10
2022-11-27T22:04:17.181Z,-0.03
2022-11-27T22:06:45.424Z,-0.24
2022-11-27T22:09:15.595Z,0.16
2022-11-27T22:11:44.704Z,0.11
2022-11-27T22:14:15.476Z,0.17
2022-11-27T22:16:46.734Z,0.20
2022-11-27T22:19:16.957Z,0.15
2022-11-27T22:21:45.782Z,-0.25
2022-11-27T22:24:18.846Z,0.27
2022-11-27T22:26:47.309Z,0.18
2022-11-27T22:29:16.681Z,0.10
2022-11-27T22:31:44.379Z,0.10
2022-11-27T22:34:12.071Z,0.15
2022-11-27T22:36:40.584Z,-0.04
2022-11-27T22:39:09.270Z,-0.03
2022-11-27T22:41:39.165Z,0.08
2022-11-27T22:44:07.669Z,0.06
2022-11-27T22:46:40.413Z,0.04
2022-11-27T22:49:08.434Z,0.10
2022-11-27T22:51:37.576Z,0.17
2022-11-27T22:54:09.738Z,0.09
2022-11-27T22:56:37.609Z,0.10
2022-11-27T22:59:31.031Z,0.05
2022-11-27T23:01:56.451Z,0.02
2022-11-27T23:04:24.088Z,0.10
2022-11-27T23:06:51.901Z,0.08
2022-11-27T23:09:19.770Z,0.06
2022-11-27T23:11:48.117Z,0.13
2022-11-27T23:14:15.821Z,-0.01
2022-11-27T23:16:43.590Z,-0.04
2022-11-27T23:19:12.743Z,-0.07
2022-11-27T23:21:40.451Z,-0.01
2022-11-27T23:24:10.670Z,-0.01
2022-11-27T23:26:38.517Z,0.01
2022-11-27T23:29:06.301Z,-0.02
2022-11-27T23:31:35.725Z,-0.05
2022-11-27T23:34:07.263Z,-0.08
2022-11-27T23:36:37.040Z,-0.07
2022-11-27T23:39:08.450Z,0.05
2022-11-27T23:41:36.128Z,-0.04
2022-11-27T23:44:03.795Z,-0.03
2022-11-27T23:46:31.671Z,-0.01
2022-11-27T23:49:01.044Z,0.04
2022-11-27T23:51:30.460Z,-0.05
2022-11-27T23:54:00.372Z,-0.10
2022-11-27T23:56:29.437Z,-0.09
2022-11-27T23:58:58.141Z,-0.26
